sensor_id;sensor_type;location;lat;lon;timestamp;pressure;altitude;pressure_sealevel;temperature;humidity
4022;BME280;2025;48.260;16.432;2023-04-23T00:02:03;99340.19;;;8.72;73.67
4022;BME280;2025;48.260;16.432;2023-04-23T00:04:31;99335.94;;;8.71;73.62
4022;BME280;2025;48.260;16.432;2023-04-23T00:07:02;99338.75;;;8.61;74.02
4022;BME280;2025;48.260;16.432;2023-04-23T00:09:29;99327.28;;;8.54;73.91
4022;BME280;2025;48.260;16.432;2023-04-23T00:11:57;99329.09;;;8.45;74.41
4022;BME280;2025;48.260;16.432;2023-04-23T00:14:27;99327.47;;;8.44;74.49
4022;BME280;2025;48.260;16.432;2023-04-23T00:16:55;99330.56;;;8.39;74.76
4022;BME280;2025;48.260;16.432;2023-04-23T00:19:22;99328.09;;;8.21;76.02
4022;BME280;2025;48.260;16.432;2023-04-23T00:21:49;99333.81;;;8.25;75.42
4022;BME280;2025;48.260;16.432;2023-04-23T00:24:16;99326.78;;;8.17;75.79
4022;BME280;2025;48.260;16.432;2023-04-23T00:26:43;99318.25;;;8.48;74.38
4022;BME280;2025;48.260;16.432;2023-04-23T00:29:10;99323.69;;;8.30;75.43
4022;BME280;2025;48.260;16.432;2023-04-23T00:31:38;99324.34;;;8.16;75.62
4022;BME280;2025;48.260;16.432;2023-04-23T00:34:05;99318.25;;;8.15;75.35
4022;BME280;2025;48.260;16.432;2023-04-23T00:36:33;99325.47;;;8.05;75.87
4022;BME280;2025;48.260;16.432;2023-04-23T00:38:59;99318.28;;;8.07;76.04
4022;BME280;2025;48.260;16.432;2023-04-23T00:41:27;99321.06;;;7.97;76.30
4022;BME280;2025;48.260;16.432;2023-04-23T00:43:54;99321.69;;;7.91;76.70
4022;BME280;2025;48.260;16.432;2023-04-23T00:46:24;99325.63;;;7.79;77.36
4022;BME280;2025;48.260;16.432;2023-04-23T00:48:53;99328.53;;;7.76;77.08
4022;BME280;2025;48.260;16.432;2023-04-23T00:51:21;99323.78;;;7.71;77.16
4022;BME280;2025;48.260;16.432;2023-04-23T00:53:49;99320.38;;;7.79;76.65
4022;BME280;2025;48.260;16.432;2023-04-23T00:56:16;99316.13;;;7.94;76.78
4022;BME280;2025;48.260;16.432;2023-04-23T00:58:44;99321.19;;;8.04;77.34
4022;BME280;2025;48.260;16.432;2023-04-23T01:01:11;99314.97;;;7.89;77.57
4022;BME280;2025;48.260;16.432;2023-04-23T01:03:39;99313.81;;;7.83;77.52
4022;BME280;2025;48.260;16.432;2023-04-23T01:06:09;99315.78;;;7.73;77.86
4022;BME280;2025;48.260;16.432;2023-04-23T01:08:37;99319.88;;;7.67;78.01
4022;BME280;2025;48.260;16.432;2023-04-23T01:11:04;99314.94;;;7.56;78.33
4022;BME280;2025;48.260;16.432;2023-04-23T01:13:32;99315.75;;;7.48;78.43
4022;BME280;2025;48.260;16.432;2023-04-23T01:16:00;99316.56;;;7.57;78.01
4022;BME280;2025;48.260;16.432;2023-04-23T01:18:27;99309.50;;;7.49;78.55
4022;BME280;2025;48.260;16.432;2023-04-23T01:20:55;99316.22;;;7.44;78.72
4022;BME280;2025;48.260;16.432;2023-04-23T01:23:24;99308.84;;;7.39;79.07
4022;BME280;2025;48.260;16.432;2023-04-23T01:25:52;99310.41;;;7.32;79.09
4022;BME280;2025;48.260;16.432;2023-04-23T01:28:19;99306.22;;;7.39;78.86
4022;BME280;2025;48.260;16.432;2023-04-23T01:30:47;99300.13;;;7.38;79.20
4022;BME280;2025;48.260;16.432;2023-04-23T01:33:14;99308.84;;;7.47;79.11
4022;BME280;2025;48.260;16.432;2023-04-23T01:35:42;99301.59;;;7.33;79.64
4022;BME280;2025;48.260;16.432;2023-04-23T01:38:10;99312.50;;;7.20;79.91
4022;BME280;2025;48.260;16.432;2023-04-23T01:40:38;99309.53;;;7.07;80.29
4022;BME280;2025;48.260;16.432;2023-04-23T01:43:06;99299.34;;;7.04;80.30
4022;BME280;2025;48.260;16.432;2023-04-23T01:45:33;99306.75;;;7.08;80.51
4022;BME280;2025;48.260;16.432;2023-04-23T01:48:00;99315.91;;;7.04;80.58
4022;BME280;2025;48.260;16.432;2023-04-23T01:50:27;99306.25;;;7.05;80.38
4022;BME280;2025;48.260;16.432;2023-04-23T01:52:55;99306.72;;;7.00;80.73
4022;BME280;2025;48.260;16.432;2023-04-23T01:55:22;99306.72;;;7.00;80.68
4022;BME280;2025;48.260;16.432;2023-04-23T01:57:50;99299.47;;;6.94;80.72
4022;BME280;2025;48.260;16.432;2023-04-23T02:00:17;99298.16;;;6.90;81.01
4022;BME280;2025;48.260;16.432;2023-04-23T02:02:45;99304.69;;;6.86;81.12
4022;BME280;2025;48.260;16.432;2023-04-23T02:05:13;99308.91;;;6.79;81.28
4022;BME280;2025;48.260;16.432;2023-04-23T02:07:41;99305.28;;;6.71;81.45
4022;BME280;2025;48.260;16.432;2023-04-23T02:10:09;99302.13;;;6.68;81.96
4022;BME280;2025;48.260;16.432;2023-04-23T02:12:37;99309.00;;;6.69;81.62
4022;BME280;2025;48.260;16.432;2023-04-23T02:15:07;99312.50;;;6.78;81.48
4022;BME280;2025;48.260;16.432;2023-04-23T02:17:34;99307.47;;;6.84;81.74
4022;BME280;2025;48.260;16.432;2023-04-23T02:20:02;99317.72;;;6.78;81.94
4022;BME280;2025;48.260;16.432;2023-04-23T02:22:30;99309.88;;;6.78;82.00
4022;BME280;2025;48.260;16.432;2023-04-23T02:24:57;99307.91;;;6.71;81.82
4022;BME280;2025;48.260;16.432;2023-04-23T02:27:24;99308.19;;;6.68;82.07
4022;BME280;2025;48.260;16.432;2023-04-23T02:29:51;99303.28;;;6.65;82.09
4022;BME280;2025;48.260;16.432;2023-04-23T02:32:20;99295.75;;;6.62;82.29
4022;BME280;2025;48.260;16.432;2023-04-23T02:34:47;99297.69;;;6.60;82.45
4022;BME280;2025;48.260;16.432;2023-04-23T02:37:14;99303.22;;;6.57;82.33
4022;BME280;2025;48.260;16.432;2023-04-23T02:39:41;99297.81;;;6.59;82.20
4022;BME280;2025;48.260;16.432;2023-04-23T02:42:08;99301.38;;;6.49;82.75
4022;BME280;2025;48.260;16.432;2023-04-23T02:44:35;99305.03;;;6.39;82.67
4022;BME280;2025;48.260;16.432;2023-04-23T02:47:02;99308.97;;;6.35;82.64
4022;BME280;2025;48.260;16.432;2023-04-23T02:49:30;99309.25;;;6.31;82.93
4022;BME280;2025;48.260;16.432;2023-04-23T02:51:57;99306.81;;;6.30;83.04
4022;BME280;2025;48.260;16.432;2023-04-23T02:54:24;99311.88;;;6.31;83.10
4022;BME280;2025;48.260;16.432;2023-04-23T02:56:51;99305.53;;;6.34;82.97
4022;BME280;2025;48.260;16.432;2023-04-23T02:59:18;99302.72;;;6.27;83.14
4022;BME280;2025;48.260;16.432;2023-04-23T03:01:45;99302.84;;;6.26;83.14
4022;BME280;2025;48.260;16.432;2023-04-23T03:04:12;99307.19;;;6.17;83.16
4022;BME280;2025;48.260;16.432;2023-04-23T03:06:41;99306.81;;;6.12;83.20
4022;BME280;2025;48.260;16.432;2023-04-23T03:09:08;99306.31;;;6.08;83.28
4022;BME280;2025;48.260;16.432;2023-04-23T03:11:36;99308.63;;;6.11;83.39
4022;BME280;2025;48.260;16.432;2023-04-23T03:14:03;99308.94;;;6.08;83.65
4022;BME280;2025;48.260;16.432;2023-04-23T03:16:30;99304.66;;;6.07;83.55
4022;BME280;2025;48.260;16.432;2023-04-23T03:18:58;99298.47;;;6.08;83.58
4022;BME280;2025;48.260;16.432;2023-04-23T03:21:25;99298.09;;;6.03;83.78
4022;BME280;2025;48.260;16.432;2023-04-23T03:23:53;99305.78;;;6.05;83.61
4022;BME280;2025;48.260;16.432;2023-04-23T03:26:20;99308.03;;;6.00;83.71
4022;BME280;2025;48.260;16.432;2023-04-23T03:28:47;99310.78;;;5.98;83.83
4022;BME280;2025;48.260;16.432;2023-04-23T03:31:14;99309.97;;;5.98;83.82
4022;BME280;2025;48.260;16.432;2023-04-23T03:33:41;99313.00;;;5.93;83.98
4022;BME280;2025;48.260;16.432;2023-04-23T03:36:08;99310.72;;;5.90;84.02
4022;BME280;2025;48.260;16.432;2023-04-23T03:38:35;99314.13;;;5.90;84.08
4022;BME280;2025;48.260;16.432;2023-04-23T03:41:05;99319.38;;;5.90;84.18
4022;BME280;2025;48.260;16.432;2023-04-23T03:43:32;99314.28;;;5.89;84.32
4022;BME280;2025;48.260;16.432;2023-04-23T03:45:59;99315.53;;;5.85;84.24
4022;BME280;2025;48.260;16.432;2023-04-23T03:48:26;99320.13;;;5.83;84.31
4022;BME280;2025;48.260;16.432;2023-04-23T03:50:53;99316.16;;;5.97;83.95
4022;BME280;2025;48.260;16.432;2023-04-23T03:53:20;99318.25;;;5.93;84.25
4022;BME280;2025;48.260;16.432;2023-04-23T03:55:47;99324.28;;;5.94;84.29
4022;BME280;2025;48.260;16.432;2023-04-23T03:58:15;99321.16;;;5.90;84.50
4022;BME280;2025;48.260;16.432;2023-04-23T04:00:42;99319.50;;;5.89;84.47
4022;BME280;2025;48.260;16.432;2023-04-23T04:03:10;99326.53;;;5.88;84.64
4022;BME280;2025;48.260;16.432;2023-04-23T04:05:37;99325.53;;;5.89;84.63
4022;BME280;2025;48.260;16.432;2023-04-23T04:08:04;99314.28;;;5.89;84.64
4022;BME280;2025;48.260;16.432;2023-04-23T04:10:31;99312.34;;;5.91;84.73
4022;BME280;2025;48.260;16.432;2023-04-23T04:12:58;99318.94;;;5.95;84.60
4022;BME280;2025;48.260;16.432;2023-04-23T04:15:26;99316.84;;;5.99;84.62
4022;BME280;2025;48.260;16.432;2023-04-23T04:17:53;99325.34;;;6.01;84.57
4022;BME280;2025;48.260;16.432;2023-04-23T04:20:20;99322.47;;;6.04;84.70
4022;BME280;2025;48.260;16.432;2023-04-23T04:22:47;99322.97;;;6.07;84.80
4022;BME280;2025;48.260;16.432;2023-04-23T04:25:14;99324.19;;;6.13;84.75
4022;BME280;2025;48.260;16.432;2023-04-23T04:27:41;99327.16;;;6.18;84.74
4022;BME280;2025;48.260;16.432;2023-04-23T04:30:09;99333.19;;;6.19;84.82
4022;BME280;2025;48.260;16.432;2023-04-23T04:32:38;99332.22;;;6.20;84.91
4022;BME280;2025;48.260;16.432;2023-04-23T04:35:05;99340.00;;;6.29;85.49
4022;BME280;2025;48.260;16.432;2023-04-23T04:37:33;99345.41;;;6.36;85.50
4022;BME280;2025;48.260;16.432;2023-04-23T04:40:00;99334.88;;;6.46;85.13
4022;BME280;2025;48.260;16.432;2023-04-23T04:42:27;99345.53;;;6.52;85.15
4022;BME280;2025;48.260;16.432;2023-04-23T04:44:54;99332.50;;;6.61;84.98
4022;BME280;2025;48.260;16.432;2023-04-23T04:47:23;99340.25;;;6.70;84.74
4022;BME280;2025;48.260;16.432;2023-04-23T04:49:52;99340.47;;;6.77;84.79
4022;BME280;2025;48.260;16.432;2023-04-23T04:52:22;99349.19;;;6.86;84.73
4022;BME280;2025;48.260;16.432;2023-04-23T04:54:49;99342.19;;;6.94;84.47
4022;BME280;2025;48.260;16.432;2023-04-23T04:57:16;99351.44;;;7.07;84.51
4022;BME280;2025;48.260;16.432;2023-04-23T04:59:44;99357.22;;;7.18;84.69
4022;BME280;2025;48.260;16.432;2023-04-23T05:02:11;99360.84;;;7.34;85.29
4022;BME280;2025;48.260;16.432;2023-04-23T05:04:38;99359.97;;;7.59;83.90
4022;BME280;2025;48.260;16.432;2023-04-23T05:07:07;99359.69;;;7.79;83.48
4022;BME280;2025;48.260;16.432;2023-04-23T05:09:34;99357.25;;;7.94;83.42
4022;BME280;2025;48.260;16.432;2023-04-23T05:12:00;99361.38;;;8.13;82.99
4022;BME280;2025;48.260;16.432;2023-04-23T05:14:27;99360.88;;;8.34;81.91
4022;BME280;2025;48.260;16.432;2023-04-23T05:16:54;99355.84;;;8.49;80.52
4022;BME280;2025;48.260;16.432;2023-04-23T05:19:21;99362.38;;;8.69;80.83
4022;BME280;2025;48.260;16.432;2023-04-23T05:21:49;99355.09;;;8.96;77.88
4022;BME280;2025;48.260;16.432;2023-04-23T05:24:17;99354.53;;;9.17;78.18
4022;BME280;2025;48.260;16.432;2023-04-23T05:26:44;99357.09;;;9.33;76.36
4022;BME280;2025;48.260;16.432;2023-04-23T05:29:11;99353.75;;;9.47;75.21
4022;BME280;2025;48.260;16.432;2023-04-23T05:31:42;99355.78;;;9.68;73.93
4022;BME280;2025;48.260;16.432;2023-04-23T05:34:09;99360.94;;;9.85;73.31
4022;BME280;2025;48.260;16.432;2023-04-23T05:36:36;99358.84;;;10.03;69.07
4022;BME280;2025;48.260;16.432;2023-04-23T05:39:04;99365.81;;;10.19;70.08
4022;BME280;2025;48.260;16.432;2023-04-23T05:41:33;99369.09;;;10.44;68.79
4022;BME280;2025;48.260;16.432;2023-04-23T05:44:00;99366.13;;;10.47;68.97
4022;BME280;2025;48.260;16.432;2023-04-23T05:46:27;99376.88;;;10.61;67.97
4022;BME280;2025;48.260;16.432;2023-04-23T05:48:53;99368.97;;;10.75;67.63
4022;BME280;2025;48.260;16.432;2023-04-23T05:51:20;99374.81;;;11.01;67.71
4022;BME280;2025;48.260;16.432;2023-04-23T05:53:47;99373.91;;;11.08;67.16
4022;BME280;2025;48.260;16.432;2023-04-23T05:56:14;99373.91;;;11.08;64.41
4022;BME280;2025;48.260;16.432;2023-04-23T05:58:43;99378.91;;;11.18;64.76
4022;BME280;2025;48.260;16.432;2023-04-23T06:01:10;99383.88;;;11.28;63.97
4022;BME280;2025;48.260;16.432;2023-04-23T06:03:37;99375.34;;;11.26;64.11
4022;BME280;2025;48.260;16.432;2023-04-23T06:06:06;99378.38;;;11.37;64.79
4022;BME280;2025;48.260;16.432;2023-04-23T06:08:33;99379.06;;;11.46;65.03
4022;BME280;2025;48.260;16.432;2023-04-23T06:11:00;99379.59;;;11.56;65.02
4022;BME280;2025;48.260;16.432;2023-04-23T06:13:27;99389.75;;;11.74;64.11
4022;BME280;2025;48.260;16.432;2023-04-23T06:15:56;99386.28;;;11.74;64.23
4022;BME280;2025;48.260;16.432;2023-04-23T06:18:24;99387.56;;;11.78;65.04
4022;BME280;2025;48.260;16.432;2023-04-23T06:20:52;99381.44;;;11.92;64.33
4022;BME280;2025;48.260;16.432;2023-04-23T06:23:21;99384.66;;;12.09;64.29
4022;BME280;2025;48.260;16.432;2023-04-23T06:25:48;99389.84;;;12.17;60.34
4022;BME280;2025;48.260;16.432;2023-04-23T06:28:15;99386.75;;;12.14;60.41
4022;BME280;2025;48.260;16.432;2023-04-23T06:30:42;99388.81;;;12.18;62.25
4022;BME280;2025;48.260;16.432;2023-04-23T06:33:11;99376.63;;;12.39;61.34
4022;BME280;2025;48.260;16.432;2023-04-23T06:35:38;99385.66;;;12.51;60.63
4022;BME280;2025;48.260;16.432;2023-04-23T06:38:04;99386.88;;;12.77;59.15
4022;BME280;2025;48.260;16.432;2023-04-23T06:40:32;99376.63;;;12.95;58.05
4022;BME280;2025;48.260;16.432;2023-04-23T06:42:59;99376.31;;;13.12;59.00
4022;BME280;2025;48.260;16.432;2023-04-23T06:45:29;99385.50;;;13.16;58.03
4022;BME280;2025;48.260;16.432;2023-04-23T06:47:56;99375.03;;;13.29;56.97
4022;BME280;2025;48.260;16.432;2023-04-23T06:50:24;99376.50;;;13.38;56.87
4022;BME280;2025;48.260;16.432;2023-04-23T06:52:52;99380.03;;;13.52;57.06
4022;BME280;2025;48.260;16.432;2023-04-23T06:55:20;99375.94;;;13.56;57.42
4022;BME280;2025;48.260;16.432;2023-04-23T06:57:50;99383.88;;;13.56;56.13
4022;BME280;2025;48.260;16.432;2023-04-23T07:00:17;99370.72;;;13.69;56.43
4022;BME280;2025;48.260;16.432;2023-04-23T07:02:45;99374.66;;;13.87;56.58
4022;BME280;2025;48.260;16.432;2023-04-23T07:05:12;99370.59;;;14.04;55.30
4022;BME280;2025;48.260;16.432;2023-04-23T07:07:40;99372.84;;;14.07;56.12
4022;BME280;2025;48.260;16.432;2023-04-23T07:10:09;99369.19;;;14.22;57.07
4022;BME280;2025;48.260;16.432;2023-04-23T07:12:37;99362.66;;;14.04;56.00
4022;BME280;2025;48.260;16.432;2023-04-23T07:15:05;99373.47;;;14.16;55.70
4022;BME280;2025;48.260;16.432;2023-04-23T07:17:33;99366.38;;;14.37;55.00
4022;BME280;2025;48.260;16.432;2023-04-23T07:20:00;99370.81;;;14.43;53.71
4022;BME280;2025;48.260;16.432;2023-04-23T07:22:31;99367.59;;;14.41;54.33
4022;BME280;2025;48.260;16.432;2023-04-23T07:25:00;99363.50;;;14.31;54.41
4022;BME280;2025;48.260;16.432;2023-04-23T07:27:27;99361.84;;;14.17;57.09
4022;BME280;2025;48.260;16.432;2023-04-23T07:29:54;99363.50;;;14.25;55.58
4022;BME280;2025;48.260;16.432;2023-04-23T07:32:21;99367.59;;;14.41;55.13
4022;BME280;2025;48.260;16.432;2023-04-23T07:34:52;99367.78;;;14.46;54.89
4022;BME280;2025;48.260;16.432;2023-04-23T07:37:19;99364.75;;;14.62;56.20
4022;BME280;2025;48.260;16.432;2023-04-23T07:39:46;99361.28;;;14.68;53.79
4022;BME280;2025;48.260;16.432;2023-04-23T07:42:14;99364.16;;;14.67;54.63
4022;BME280;2025;48.260;16.432;2023-04-23T07:44:41;99359.22;;;14.70;54.80
4022;BME280;2025;48.260;16.432;2023-04-23T07:47:08;99361.06;;;14.90;55.82
4022;BME280;2025;48.260;16.432;2023-04-23T07:49:35;99363.00;;;15.21;53.40
4022;BME280;2025;48.260;16.432;2023-04-23T07:52:02;99359.88;;;15.44;52.84
4022;BME280;2025;48.260;16.432;2023-04-23T07:54:29;99357.81;;;15.53;52.41
4022;BME280;2025;48.260;16.432;2023-04-23T07:56:56;99371.69;;;15.55;53.18
4022;BME280;2025;48.260;16.432;2023-04-23T07:59:25;99365.84;;;15.78;50.84
4022;BME280;2025;48.260;16.432;2023-04-23T08:01:52;99361.28;;;15.92;51.12
4022;BME280;2025;48.260;16.432;2023-04-23T08:04:18;99366.28;;;16.13;50.92
4022;BME280;2025;48.260;16.432;2023-04-23T08:06:45;99369.53;;;16.15;49.98
4022;BME280;2025;48.260;16.432;2023-04-23T08:09:12;99364.44;;;16.14;50.64
4022;BME280;2025;48.260;16.432;2023-04-23T08:11:39;99364.34;;;16.27;49.37
4022;BME280;2025;48.260;16.432;2023-04-23T08:14:06;99355.00;;;16.43;49.92
4022;BME280;2025;48.260;16.432;2023-04-23T08:16:35;99365.69;;;16.61;48.57
4022;BME280;2025;48.260;16.432;2023-04-23T08:19:02;99365.03;;;16.66;48.56
4022;BME280;2025;48.260;16.432;2023-04-23T08:21:30;99361.78;;;16.64;48.09
4022;BME280;2025;48.260;16.432;2023-04-23T08:23:57;99360.31;;;16.68;49.36
4022;BME280;2025;48.260;16.432;2023-04-23T08:26:24;99366.31;;;16.89;49.24
4022;BME280;2025;48.260;16.432;2023-04-23T08:28:51;99363.28;;;17.03;48.60
4022;BME280;2025;48.260;16.432;2023-04-23T08:31:18;99353.75;;;17.14;50.10
4022;BME280;2025;48.260;16.432;2023-04-23T08:33:46;99356.41;;;17.33;49.38
4022;BME280;2025;48.260;16.432;2023-04-23T08:36:13;99353.16;;;17.49;48.65
4022;BME280;2025;48.260;16.432;2023-04-23T08:38:40;99357.50;;;17.43;47.69
4022;BME280;2025;48.260;16.432;2023-04-23T08:41:09;99348.13;;;17.22;47.05
4022;BME280;2025;48.260;16.432;2023-04-23T08:43:43;99350.78;;;17.41;48.99
4022;BME280;2025;48.260;16.432;2023-04-23T08:46:12;99349.78;;;17.23;47.44
4022;BME280;2025;48.260;16.432;2023-04-23T08:48:40;99352.25;;;17.55;51.39
4022;BME280;2025;48.260;16.432;2023-04-23T08:51:12;99345.44;;;17.59;47.83
4022;BME280;2025;48.260;16.432;2023-04-23T08:53:43;99340.31;;;17.76;47.97
4022;BME280;2025;48.260;16.432;2023-04-23T08:56:12;99340.84;;;17.97;48.99
4022;BME280;2025;48.260;16.432;2023-04-23T08:58:40;99346.19;;;18.08;48.03
4022;BME280;2025;48.260;16.432;2023-04-23T09:01:08;99341.16;;;18.19;46.08
4022;BME280;2025;48.260;16.432;2023-04-23T09:03:36;99338.47;;;18.07;45.28
4022;BME280;2025;48.260;16.432;2023-04-23T09:06:04;99338.69;;;18.17;47.37
4022;BME280;2025;48.260;16.432;2023-04-23T09:08:33;99336.84;;;18.29;47.47
4022;BME280;2025;48.260;16.432;2023-04-23T09:11:00;99336.16;;;18.34;48.46
4022;BME280;2025;48.260;16.432;2023-04-23T09:13:29;99332.81;;;18.50;45.48
4022;BME280;2025;48.260;16.432;2023-04-23T09:15:56;99327.06;;;18.77;44.85
4022;BME280;2025;48.260;16.432;2023-04-23T09:18:24;99332.59;;;18.64;45.55
4022;BME280;2025;48.260;16.432;2023-04-23T09:20:51;99336.69;;;18.78;44.38
4022;BME280;2025;48.260;16.432;2023-04-23T09:23:20;99329.63;;;18.84;48.81
4022;BME280;2025;48.260;16.432;2023-04-23T09:25:50;99343.06;;;18.89;46.07
4022;BME280;2025;48.260;16.432;2023-04-23T09:28:17;99334.47;;;18.99;45.38
4022;BME280;2025;48.260;16.432;2023-04-23T09:30:44;99324.66;;;19.16;45.44
4022;BME280;2025;48.260;16.432;2023-04-23T09:33:11;99323.00;;;19.38;45.97
4022;BME280;2025;48.260;16.432;2023-04-23T09:35:38;99326.72;;;19.37;47.85
4022;BME280;2025;48.260;16.432;2023-04-23T09:38:06;99327.59;;;19.14;42.48
4022;BME280;2025;48.260;16.432;2023-04-23T09:40:35;99321.38;;;19.37;42.24
4022;BME280;2025;48.260;16.432;2023-04-23T09:43:04;99322.59;;;19.58;44.75
4022;BME280;2025;48.260;16.432;2023-04-23T09:45:32;99316.75;;;19.90;41.49
4022;BME280;2025;48.260;16.432;2023-04-23T09:48:01;99317.41;;;19.97;43.77
4022;BME280;2025;48.260;16.432;2023-04-23T09:50:32;99306.47;;;19.82;45.79
4022;BME280;2025;48.260;16.432;2023-04-23T09:52:59;99318.84;;;19.59;43.85
4022;BME280;2025;48.260;16.432;2023-04-23T09:55:28;99309.06;;;19.36;42.44
4022;BME280;2025;48.260;16.432;2023-04-23T09:58:00;99320.31;;;19.67;42.86
4022;BME280;2025;48.260;16.432;2023-04-23T10:00:32;99317.66;;;19.79;41.89
4022;BME280;2025;48.260;16.432;2023-04-23T10:02:59;99303.50;;;19.95;41.64
4022;BME280;2025;48.260;16.432;2023-04-23T10:05:27;99309.31;;;20.09;42.77
4022;BME280;2025;48.260;16.432;2023-04-23T10:07:54;99305.53;;;20.22;43.32
4022;BME280;2025;48.260;16.432;2023-04-23T10:10:22;99305.28;;;20.40;40.17
4022;BME280;2025;48.260;16.432;2023-04-23T10:12:50;99298.63;;;20.43;41.42
4022;BME280;2025;48.260;16.432;2023-04-23T10:15:18;99298.00;;;20.19;43.84
4022;BME280;2025;48.260;16.432;2023-04-23T10:17:46;99297.84;;;20.59;43.96
4022;BME280;2025;48.260;16.432;2023-04-23T10:20:15;99288.09;;;20.92;40.27
4022;BME280;2025;48.260;16.432;2023-04-23T10:22:43;99277.28;;;21.26;42.45
4022;BME280;2025;48.260;16.432;2023-04-23T10:25:12;99273.06;;;21.57;39.31
4022;BME280;2025;48.260;16.432;2023-04-23T10:27:40;99268.91;;;21.72;38.00
4022;BME280;2025;48.260;16.432;2023-04-23T10:30:09;99261.28;;;21.58;41.23
4022;BME280;2025;48.260;16.432;2023-04-23T10:32:37;99260.56;;;22.00;40.35
4022;BME280;2025;48.260;16.432;2023-04-23T10:35:07;99252.22;;;22.71;40.32
4022;BME280;2025;48.260;16.432;2023-04-23T10:37:35;99248.66;;;23.24;35.76
4022;BME280;2025;48.260;16.432;2023-04-23T10:40:06;99257.03;;;23.38;35.50
4022;BME280;2025;48.260;16.432;2023-04-23T10:42:36;99251.44;;;23.70;36.19
4022;BME280;2025;48.260;16.432;2023-04-23T10:45:11;99250.06;;;23.37;36.30
4022;BME280;2025;48.260;16.432;2023-04-23T10:47:41;99244.38;;;23.33;35.42
4022;BME280;2025;48.260;16.432;2023-04-23T10:50:21;99243.44;;;23.80;37.21
4022;BME280;2025;48.260;16.432;2023-04-23T10:52:49;99234.25;;;23.71;33.95
4022;BME280;2025;48.260;16.432;2023-04-23T10:55:22;99232.38;;;23.76;35.59
4022;BME280;2025;48.260;16.432;2023-04-23T10:58:00;99230.44;;;23.56;34.12
4022;BME280;2025;48.260;16.432;2023-04-23T11:00:30;99235.03;;;23.56;34.06
4022;BME280;2025;48.260;16.432;2023-04-23T11:03:29;99229.91;;;23.44;33.59
4022;BME280;2025;48.260;16.432;2023-04-23T11:06:00;99223.69;;;23.28;34.60
4022;BME280;2025;48.260;16.432;2023-04-23T11:08:28;99230.19;;;23.58;35.62
4022;BME280;2025;48.260;16.432;2023-04-23T11:10:57;99232.09;;;24.09;33.00
4022;BME280;2025;48.260;16.432;2023-04-23T11:13:25;99228.06;;;23.91;33.29
4022;BME280;2025;48.260;16.432;2023-04-23T11:16:12;99217.56;;;23.43;32.95
4022;BME280;2025;48.260;16.432;2023-04-23T11:18:59;99211.69;;;23.77;33.65
4022;BME280;2025;48.260;16.432;2023-04-23T11:21:57;99219.22;;;24.06;34.01
4022;BME280;2025;48.260;16.432;2023-04-23T11:24:26;99216.75;;;24.19;33.47
4022;BME280;2025;48.260;16.432;2023-04-23T11:26:53;99205.13;;;24.45;31.78
4022;BME280;2025;48.260;16.432;2023-04-23T11:29:21;99207.81;;;24.60;31.69
4022;BME280;2025;48.260;16.432;2023-04-23T11:31:49;99208.38;;;24.47;34.24
4022;BME280;2025;48.260;16.432;2023-04-23T11:34:16;99210.56;;;24.29;35.91
4022;BME280;2025;48.260;16.432;2023-04-23T11:36:44;99204.41;;;23.62;33.72
4022;BME280;2025;48.260;16.432;2023-04-23T11:39:12;99194.97;;;23.39;33.17
4022;BME280;2025;48.260;16.432;2023-04-23T11:41:40;99197.41;;;23.61;33.61
4022;BME280;2025;48.260;16.432;2023-04-23T11:44:08;99191.47;;;23.44;33.53
4022;BME280;2025;48.260;16.432;2023-04-23T11:46:36;99193.66;;;23.98;31.54
4022;BME280;2025;48.260;16.432;2023-04-23T11:49:03;99188.03;;;23.94;34.22
4022;BME280;2025;48.260;16.432;2023-04-23T11:51:30;99184.25;;;24.06;33.13
4022;BME280;2025;48.260;16.432;2023-04-23T11:54:02;99187.69;;;24.22;32.55
4022;BME280;2025;48.260;16.432;2023-04-23T11:56:31;99179.25;;;24.64;32.56
4022;BME280;2025;48.260;16.432;2023-04-23T11:59:00;99182.09;;;24.88;30.79
4022;BME280;2025;48.260;16.432;2023-04-23T12:01:50;99184.91;;;24.63;31.04
4022;BME280;2025;48.260;16.432;2023-04-23T12:04:18;99180.47;;;24.07;35.25
4022;BME280;2025;48.260;16.432;2023-04-23T12:06:46;99181.28;;;23.82;32.41
4022;BME280;2025;48.260;16.432;2023-04-23T12:09:15;99179.16;;;23.68;32.95
4022;BME280;2025;48.260;16.432;2023-04-23T12:11:44;99183.13;;;23.30;33.83
4022;BME280;2025;48.260;16.432;2023-04-23T12:14:13;99182.56;;;23.07;34.50
4022;BME280;2025;48.260;16.432;2023-04-23T12:16:41;99166.47;;;23.33;33.80
4022;BME280;2025;48.260;16.432;2023-04-23T12:19:09;99169.44;;;23.72;33.00
4022;BME280;2025;48.260;16.432;2023-04-23T12:21:52;99167.81;;;24.12;32.29
4022;BME280;2025;48.260;16.432;2023-04-23T12:24:20;99163.22;;;24.23;31.64
4022;BME280;2025;48.260;16.432;2023-04-23T12:26:50;99162.44;;;24.07;33.47
4022;BME280;2025;48.260;16.432;2023-04-23T12:29:20;99166.75;;;23.98;35.28
4022;BME280;2025;48.260;16.432;2023-04-23T12:31:48;99160.59;;;23.87;32.46
4022;BME280;2025;48.260;16.432;2023-04-23T12:34:17;99163.28;;;23.36;34.68
4022;BME280;2025;48.260;16.432;2023-04-23T12:36:46;99151.44;;;23.22;35.85
4022;BME280;2025;48.260;16.432;2023-04-23T12:39:24;99149.03;;;23.41;32.91
4022;BME280;2025;48.260;16.432;2023-04-23T12:41:55;99154.66;;;23.39;34.78
4022;BME280;2025;48.260;16.432;2023-04-23T12:44:22;99144.47;;;23.41;33.20
4022;BME280;2025;48.260;16.432;2023-04-23T12:46:53;99145.53;;;23.30;33.98
4022;BME280;2025;48.260;16.432;2023-04-23T12:49:21;99138.25;;;23.05;34.11
4022;BME280;2025;48.260;16.432;2023-04-23T12:51:48;99135.56;;;23.05;34.76
4022;BME280;2025;48.260;16.432;2023-04-23T12:54:15;99132.66;;;23.27;33.00
4022;BME280;2025;48.260;16.432;2023-04-23T12:56:42;99128.59;;;23.40;35.31
4022;BME280;2025;48.260;16.432;2023-04-23T12:59:10;99128.34;;;23.36;31.80
4022;BME280;2025;48.260;16.432;2023-04-23T13:01:37;99131.00;;;23.26;35.58
4022;BME280;2025;48.260;16.432;2023-04-23T13:04:04;99122.16;;;23.35;33.01
4022;BME280;2025;48.260;16.432;2023-04-23T13:06:31;99113.84;;;23.47;31.91
4022;BME280;2025;48.260;16.432;2023-04-23T13:08:58;99111.97;;;23.48;32.36
4022;BME280;2025;48.260;16.432;2023-04-23T13:11:27;99115.97;;;23.61;31.79
4022;BME280;2025;48.260;16.432;2023-04-23T13:13:54;99109.53;;;23.62;33.47
4022;BME280;2025;48.260;16.432;2023-04-23T13:16:23;99104.44;;;23.50;32.18
4022;BME280;2025;48.260;16.432;2023-04-23T13:18:50;99099.84;;;23.35;32.91
4022;BME280;2025;48.260;16.432;2023-04-23T13:21:17;99093.94;;;23.53;31.15